Time;durP1;ratioP1;P1;durP2;ratioP2;P2;SDS_P1;SDS_P2;PMS_P1;PMS_P2;Temp;Humidity;BMP_temperature;BMP_pressure;BME280_temperature;BME280_humidity;BME280_pressure;Samples;Min_cycle;Max_cycle;Signal;HPM_P1;HPM_P2
2023/04/11 00:00:08;;;;;;;11.23;2.92;;;7.60;99.90;;;;;;4967488;28;20046;-79
2023/04/11 00:02:33;;;;;;;6.68;2.97;;;7.50;99.90;;;;;;4969800;28;20050;-79
2023/04/11 00:04:59;;;;;;;5.57;2.33;;;7.50;99.90;;;;;;4971108;28;20389;-79
2023/04/11 00:07:25;;;;;;;9.77;3.05;;;7.40;99.90;;;;;;4971567;28;20078;-80
2023/04/11 00:09:51;;;;;;;5.75;2.42;;;7.50;99.90;;;;;;4972249;28;20085;-79
2023/04/11 00:12:17;;;;;;;6.25;2.38;;;7.50;99.90;;;;;;4970442;28;20085;-80
2023/04/11 00:14:44;;;;;;;7.78;3.17;;;7.50;99.90;;;;;;4978591;28;20042;-79
2023/04/11 00:17:14;;;;;;;8.80;2.63;;;7.50;99.90;;;;;;4976817;28;20054;-78
2023/04/11 00:19:42;;;;;;;4.65;2.75;;;7.50;99.90;;;;;;4992974;28;20062;-78
2023/04/11 00:22:09;;;;;;;8.07;2.43;;;7.50;99.90;;;;;;4991229;28;20042;-78
2023/04/11 00:24:34;;;;;;;7.32;2.83;;;7.50;99.90;;;;;;4984977;28;20389;-78
2023/04/11 00:27:00;;;;;;;8.73;2.40;;;7.50;99.90;;;;;;4970384;28;20062;-79
2023/04/11 00:29:26;;;;;;;5.57;2.03;;;7.50;99.90;;;;;;4970609;28;20046;-79
2023/04/11 00:31:54;;;;;;;6.25;1.83;;;7.50;99.90;;;;;;4969095;28;20423;-79
2023/04/11 00:34:22;;;;;;;7.32;2.45;;;7.40;99.90;;;;;;4965602;28;20503;-79
2023/04/11 00:36:48;;;;;;;;;;;7.40;99.90;;;;;;4954727;28;20051;-80
2023/04/11 00:39:17;;;;;;;9.15;2.47;;;7.40;99.90;;;;;;4961081;28;20296;-79
2023/04/11 00:41:42;;;;;;;4.70;2.55;;;7.40;99.90;;;;;;4969880;28;20067;-79
2023/04/11 00:44:10;;;;;;;7.53;2.58;;;7.40;99.90;;;;;;4970171;28;20055;-79
2023/04/11 00:46:36;;;;;;;5.43;2.60;;;7.30;99.90;;;;;;4970124;28;20051;-79
2023/04/11 00:49:02;;;;;;;12.70;3.10;;;7.30;99.90;;;;;;4969014;28;20933;-79
2023/04/11 00:51:28;;;;;;;4.18;2.53;;;7.30;99.90;;;;;;4965766;28;20041;-80
2023/04/11 00:53:53;;;;;;;6.18;2.40;;;7.20;99.90;;;;;;4964944;28;20093;-79
2023/04/11 00:56:20;;;;;;;5.45;2.20;;;7.20;99.90;;;;;;4969850;28;20050;-79
2023/04/11 00:58:46;;;;;;;11.55;3.35;;;7.10;99.90;;;;;;4969823;28;20066;-79
2023/04/11 01:01:15;;;;;;;8.10;3.38;;;7.10;99.90;;;;;;4969448;28;20511;-79
2023/04/11 01:03:41;;;;;;;4.65;2.67;;;7.00;99.90;;;;;;4988497;28;20088;-79
2023/04/11 01:06:13;;;;;;;8.23;3.30;;;7.00;99.90;;;;;;4986641;28;20050;-79
2023/04/11 01:08:41;;;;;;;5.57;2.40;;;7.00;99.90;;;;;;4965902;28;20078;-79
2023/04/11 01:11:08;;;;;;;6.93;2.40;;;7.00;99.90;;;;;;4988702;28;20055;-79
2023/04/11 01:13:35;;;;;;;7.40;3.03;;;6.90;99.90;;;;;;4987665;28;20058;-79
2023/04/11 01:16:02;;;;;;;8.57;3.80;;;6.90;99.90;;;;;;4987573;28;20042;-79
2023/04/11 01:18:28;;;;;;;8.30;3.00;;;6.80;99.90;;;;;;4970472;28;20050;-79
2023/04/11 01:20:54;;;;;;;4.88;3.05;;;6.80;99.90;;;;;;4969641;28;20031;-79
2023/04/11 01:23:24;;;;;;;6.10;3.00;;;6.80;99.90;;;;;;4972921;28;20057;-79
2023/04/11 01:25:50;;;;;;;10.15;2.65;;;6.80;99.90;;;;;;4963169;28;20073;-79
2023/04/11 01:28:17;;;;;;;10.88;3.65;;;6.80;99.90;;;;;;4968579;28;20133;-79
2023/04/11 01:30:43;;;;;;;10.88;3.33;;;6.70;99.90;;;;;;4967956;28;20078;-79
2023/04/11 01:33:12;;;;;;;6.85;3.08;;;6.80;99.90;;;;;;4968073;28;20487;-78
2023/04/11 01:35:38;;;;;;;10.35;3.33;;;6.80;99.90;;;;;;4968353;28;20047;-78
2023/04/11 01:38:04;;;;;;;8.32;3.40;;;6.80;99.90;;;;;;4975205;28;20054;-79
2023/04/11 01:40:33;;;;;;;8.65;2.72;;;6.80;99.90;;;;;;4983027;28;20090;-79
2023/04/11 01:43:03;;;;;;;7.15;3.20;;;6.90;99.90;;;;;;4965674;28;20061;-78
2023/04/11 01:45:29;;;;;;;6.63;3.25;;;6.80;99.90;;;;;;4968491;28;20125;-78
2023/04/11 01:47:56;;;;;;;10.52;3.55;;;6.80;99.90;;;;;;4969413;28;20051;-78
2023/04/11 01:50:22;;;;;;;10.32;3.58;;;6.80;99.90;;;;;;4970163;28;20511;-78
2023/04/11 01:52:48;;;;;;;11.15;4.22;;;6.70;99.90;;;;;;4948808;28;20053;-78
2023/04/11 01:55:15;;;;;;;8.85;3.47;;;6.70;99.90;;;;;;4966378;28;20035;-78
2023/04/11 01:57:40;;;;;;;14.45;5.03;;;6.70;99.90;;;;;;4980442;28;20090;-79
2023/04/11 02:00:09;;;;;;;8.40;3.97;;;6.70;99.90;;;;;;4968604;28;20761;-79
2023/04/11 02:02:36;;;;;;;9.82;3.78;;;6.60;99.90;;;;;;4968460;28;20538;-79
2023/04/11 02:05:02;;;;;;;16.05;4.28;;;6.60;99.90;;;;;;4968494;28;20065;-78
2023/04/11 02:07:28;;;;;;;7.93;3.65;;;6.60;99.90;;;;;;4971359;28;20058;-79
2023/04/11 02:09:55;;;;;;;11.70;3.90;;;6.60;99.90;;;;;;4970106;28;20131;-79
2023/04/11 02:12:20;;;;;;;14.35;4.63;;;6.60;99.90;;;;;;4974446;28;20050;-78
2023/04/11 02:14:48;;;;;;;11.63;4.72;;;6.60;99.90;;;;;;4987944;28;20491;-78
2023/04/11 02:17:13;;;;;;;18.45;4.93;;;6.60;99.90;;;;;;4970380;28;20049;-78
2023/04/11 02:19:44;;;;;;;13.25;4.40;;;6.60;99.90;;;;;;4970871;28;20047;-79
2023/04/11 02:22:11;;;;;;;10.95;5.05;;;6.70;99.90;;;;;;4971201;28;20051;-78
2023/04/11 02:24:37;;;;;;;9.70;5.10;;;6.70;99.90;;;;;;4972349;28;20074;-78
2023/04/11 02:27:03;;;;;;;15.20;5.00;;;6.70;99.90;;;;;;4970225;28;20058;-79
2023/04/11 02:29:28;;;;;;;20.20;5.22;;;6.70;99.90;;;;;;4964293;28;20126;-79
2023/04/11 02:31:54;;;;;;;13.73;5.05;;;6.70;99.90;;;;;;4976505;28;20070;-79
2023/04/11 02:34:20;;;;;;;8.27;4.63;;;6.80;99.90;;;;;;4969413;28;20065;-80
2023/04/11 02:36:46;;;;;;;17.65;5.85;;;6.80;99.90;;;;;;4969045;28;20126;-78
2023/04/11 02:39:12;;;;;;;14.32;5.25;;;6.80;99.90;;;;;;4967417;28;20453;-79
2023/04/11 02:41:39;;;;;;;16.60;6.57;;;6.80;99.90;;;;;;4967776;28;20537;-80
2023/04/11 02:44:05;;;;;;;15.98;4.85;;;6.80;99.90;;;;;;4966539;28;20120;-79
2023/04/11 02:46:31;;;;;;;11.45;5.10;;;6.80;99.90;;;;;;4966603;28;20050;-79
2023/04/11 02:48:56;;;;;;;11.15;5.43;;;6.80;99.90;;;;;;4968646;28;20525;-79
2023/04/11 02:51:22;;;;;;;16.23;5.30;;;6.80;99.90;;;;;;4966335;28;20043;-79
2023/04/11 02:53:48;;;;;;;18.33;5.82;;;6.80;99.90;;;;;;4967332;28;20050;-79
2023/04/11 02:56:17;;;;;;;9.50;4.57;;;6.90;99.90;;;;;;4966604;28;20046;-79
2023/04/11 02:58:46;;;;;;;6.97;3.35;;;6.80;99.90;;;;;;4966799;28;20051;-79
2023/04/11 03:01:17;;;;;;;9.18;4.30;;;6.90;99.90;;;;;;4965834;28;20053;-79
2023/04/11 03:03:43;;;;;;;8.85;3.13;;;6.90;99.90;;;;;;4973663;28;20090;-78
2023/04/11 03:06:09;;;;;;;8.30;2.88;;;6.90;99.90;;;;;;4966822;28;20514;-78
2023/04/11 03:08:36;;;;;;;12.50;2.95;;;6.90;99.90;;;;;;4951469;28;20051;-78
2023/04/11 03:11:02;;;;;;;9.82;3.42;;;6.90;99.90;;;;;;4953048;28;20069;-78
2023/04/11 03:13:28;;;;;;;4.38;2.63;;;6.90;99.90;;;;;;4960992;28;20051;-78
2023/04/11 03:15:54;;;;;;;3.83;2.70;;;6.90;99.90;;;;;;4976533;28;20043;-78
2023/04/11 03:18:21;;;;;;;4.13;2.30;;;6.90;99.90;;;;;;4951740;28;20051;-78
2023/04/11 03:20:48;;;;;;;2.92;2.20;;;7.00;99.90;;;;;;4970822;28;20601;-78
2023/04/11 03:23:14;;;;;;;10.57;2.90;;;7.00;99.90;;;;;;4971562;28;20051;-78
2023/04/11 03:25:40;;;;;;;3.40;2.75;;;7.00;99.90;;;;;;4985677;28;20056;-78
2023/04/11 03:28:06;;;;;;;6.60;2.78;;;7.00;99.90;;;;;;4976564;28;20039;-77
2023/04/11 03:30:32;;;;;;;4.32;2.33;;;7.00;99.90;;;;;;4970362;28;20081;-77
2023/04/11 03:32:59;;;;;;;6.25;2.47;;;7.00;99.90;;;;;;4969814;28;20043;-77
2023/04/11 03:35:26;;;;;;;9.00;2.97;;;7.00;99.90;;;;;;4967284;28;20147;-77
2023/04/11 03:37:51;;;;;;;6.68;3.28;;;7.00;99.90;;;;;;4954030;28;20043;-77
2023/04/11 03:40:17;;;;;;;5.18;2.63;;;7.00;99.90;;;;;;4966802;28;20106;-77
2023/04/11 03:42:45;;;;;;;4.97;3.22;;;7.00;99.90;;;;;;4965997;28;20609;-77
2023/04/11 03:45:11;;;;;;;3.72;2.90;;;7.10;99.90;;;;;;4969525;28;20156;-77
2023/04/11 03:47:38;;;;;;;7.35;3.70;;;7.10;99.90;;;;;;4969869;28;20129;-77
2023/04/11 03:50:05;;;;;;;5.75;3.47;;;7.10;99.90;;;;;;4974253;28;20132;-77
2023/04/11 03:52:31;;;;;;;11.68;4.55;;;7.10;99.90;;;;;;4975009;28;20136;-78
2023/04/11 03:54:57;;;;;;;13.15;3.95;;;7.10;99.90;;;;;;4967660;28;20538;-77
2023/04/11 03:57:25;;;;;;;7.43;4.05;;;7.10;99.90;;;;;;4969438;28;20078;-77
2023/04/11 03:59:54;;;;;;;;;;;7.10;99.90;;;;;;4976027;28;20053;-78
2023/04/11 04:02:20;;;;;;;10.75;4.45;;;7.10;99.90;;;;;;4989406;28;19925;-79
2023/04/11 04:05:00;;;;;;;15.80;5.75;;;7.10;99.90;;;;;;5105108;27;20396;-76
2023/04/11 04:07:26;;;;;;;17.98;5.75;;;7.10;99.90;;;;;;5101061;28;20056;-76
2023/04/11 04:09:54;;;;;;;17.35;6.10;;;7.10;99.90;;;;;;5094898;28;20672;-76
2023/04/11 04:12:21;;;;;;;27.00;5.57;;;7.10;99.90;;;;;;5086311;28;20893;-76
2023/04/11 04:14:47;;;;;;;21.50;6.43;;;7.10;99.90;;;;;;5083108;28;20045;-76
2023/04/11 04:17:15;;;;;;;18.05;5.97;;;7.10;99.90;;;;;;5092425;28;20088;-77
2023/04/11 04:19:42;;;;;;;19.80;7.28;;;7.10;99.90;;;;;;5103064;28;20048;-76
2023/04/11 04:22:10;;;;;;;20.70;6.80;;;7.10;99.90;;;;;;5095260;28;20036;-76
2023/04/11 04:24:40;;;;;;;33.95;6.45;;;7.10;99.90;;;;;;5084286;28;20138;-77
2023/04/11 04:27:10;;;;;;;17.10;5.85;;;7.20;99.90;;;;;;5095002;28;20056;-77
2023/04/11 04:29:44;;;;;;;23.23;5.88;;;7.20;99.90;;;;;;5097335;28;20867;-76
2023/04/11 04:32:19;;;;;;;17.70;6.18;;;7.20;99.90;;;;;;5134749;27;20135;-76
2023/04/11 04:34:49;;;;;;;20.67;6.35;;;7.20;99.90;;;;;;5103139;28;20051;-77
2023/04/11 04:37:22;;;;;;;20.08;6.43;;;7.30;99.90;;;;;;5102432;28;20074;-78
2023/04/11 04:39:55;;;;;;;17.58;5.65;;;7.30;99.90;;;;;;5089706;28;20578;-79
2023/04/11 04:42:25;;;;;;;16.77;5.20;;;7.30;99.90;;;;;;5068466;28;20055;-78
2023/04/11 04:44:52;;;;;;;16.25;5.10;;;7.30;99.90;;;;;;5075621;28;20071;-80
2023/04/11 04:47:18;;;;;;;18.70;5.88;;;7.30;99.90;;;;;;5082595;28;20056;-79
2023/04/11 04:49:46;;;;;;;14.10;7.03;;;7.40;99.90;;;;;;5082118;28;20048;-79
2023/04/11 04:52:13;;;;;;;19.92;4.97;;;7.40;99.90;;;;;;5082766;28;20853;-79
2023/04/11 04:54:39;;;;;;;15.32;5.60;;;7.40;99.90;;;;;;5082763;28;20056;-79
2023/04/11 04:57:05;;;;;;;15.38;5.47;;;7.40;99.90;;;;;;5078386;28;20150;-79
2023/04/11 04:59:31;;;;;;;18.83;4.93;;;7.40;99.90;;;;;;5075691;28;20089;-79
2023/04/11 05:01:57;;;;;;;9.93;5.00;;;7.40;99.90;;;;;;5116508;28;20044;-79
2023/04/11 05:04:23;;;;;;;16.38;5.60;;;7.40;99.90;;;;;;5106929;28;20140;-78
2023/04/11 05:06:49;;;;;;;13.63;5.00;;;7.40;99.90;;;;;;5088313;28;20059;-78
2023/04/11 05:09:15;;;;;;;11.63;5.03;;;7.40;99.90;;;;;;5095594;28;20099;-78
2023/04/11 05:11:41;;;;;;;13.88;5.38;;;7.50;99.90;;;;;;5100473;28;20044;-79
2023/04/11 05:14:07;;;;;;;17.40;5.05;;;7.40;99.90;;;;;;5082374;28;20044;-79
2023/04/11 05:16:32;;;;;;;16.10;5.00;;;7.50;99.90;;;;;;5060603;28;20475;-79
2023/04/11 05:18:58;;;;;;;20.10;5.28;;;7.40;99.90;;;;;;5085123;28;20045;-79
2023/04/11 05:21:25;;;;;;;9.85;4.28;;;7.40;99.90;;;;;;5101566;28;20044;-78
2023/04/11 05:23:51;;;;;;;15.27;5.70;;;7.40;99.90;;;;;;5068347;28;20745;-78
2023/04/11 05:26:18;;;;;;;15.75;4.57;;;7.40;99.90;;;;;;5069424;28;20044;-78
2023/04/11 05:28:44;;;;;;;12.50;5.43;;;7.40;99.90;;;;;;5069205;28;20124;-79
2023/04/11 05:31:10;;;;;;;16.42;4.97;;;7.50;99.90;;;;;;5068255;28;20051;-78
2023/04/11 05:33:40;;;;;;;18.08;5.00;;;7.50;99.90;;;;;;5065526;28;20055;-78
2023/04/11 05:36:07;;;;;;;18.20;5.30;;;7.50;99.90;;;;;;5067753;28;20148;-78
2023/04/11 05:38:32;;;;;;;16.92;5.00;;;7.50;99.90;;;;;;5068193;28;20056;-77
2023/04/11 05:40:59;;;;;;;16.10;4.65;;;7.60;99.90;;;;;;5066743;28;20049;-77
2023/04/11 05:43:25;;;;;;;15.77;5.38;;;7.50;99.90;;;;;;5066267;28;20055;-77
2023/04/11 05:45:51;;;;;;;12.70;4.57;;;7.60;99.90;;;;;;5051164;28;20049;-77
2023/04/11 05:48:21;;;;;;;15.70;5.15;;;7.60;99.90;;;;;;5066767;28;20047;-77
2023/04/11 05:50:48;;;;;;;11.90;5.05;;;7.60;99.90;;;;;;5057645;28;20044;-77
2023/04/11 05:53:14;;;;;;;12.43;4.65;;;7.60;99.90;;;;;;5101601;28;20110;-77
2023/04/11 05:55:40;;;;;;;17.80;4.82;;;7.60;99.90;;;;;;5067688;28;20048;-77
2023/04/11 05:58:05;;;;;;;18.88;4.80;;;7.60;99.90;;;;;;5067902;28;20085;-77
2023/04/11 06:00:31;;;;;;;9.77;4.95;;;7.60;99.90;;;;;;5067513;28;20063;-77
2023/04/11 06:02:58;;;;;;;13.27;5.50;;;7.60;99.90;;;;;;5066763;28;20052;-77
2023/04/11 06:05:25;;;;;;;12.45;5.10;;;7.60;99.90;;;;;;5064652;28;20044;-78
2023/04/11 06:07:52;;;;;;;15.43;5.15;;;7.60;99.90;;;;;;5067000;28;20413;-77
2023/04/11 06:10:17;;;;;;;12.38;4.80;;;7.70;99.90;;;;;;5067295;28;20516;-77
2023/04/11 06:12:43;;;;;;;12.05;4.38;;;7.70;99.90;;;;;;5066718;28;20037;-78
2023/04/11 06:15:10;;;;;;;9.50;4.57;;;7.70;99.90;;;;;;5066685;28;20043;-77
2023/04/11 06:17:37;;;;;;;19.90;5.88;;;7.70;99.90;;;;;;5061376;28;20055;-77
2023/04/11 06:20:04;;;;;;;11.50;4.57;;;7.80;99.90;;;;;;5064159;28;20060;-76
2023/04/11 06:22:30;;;;;;;15.50;4.32;;;7.80;99.90;;;;;;5056125;28;20075;-77
2023/04/11 06:24:56;;;;;;;13.10;4.70;;;7.80;99.90;;;;;;5099457;28;20052;-77
2023/04/11 06:27:22;;;;;;;15.07;4.88;;;7.90;99.90;;;;;;5065300;28;20051;-78
2023/04/11 06:29:47;;;;;;;6.85;3.70;;;7.90;99.90;;;;;;5066885;28;20413;-78
2023/04/11 06:32:13;;;;;;;10.80;4.93;;;7.90;99.90;;;;;;5066818;28;20044;-77
2023/04/11 06:34:40;;;;;;;12.52;4.97;;;8.00;99.90;;;;;;5067149;28;20525;-78
2023/04/11 06:37:06;;;;;;;10.80;3.88;;;8.00;99.90;;;;;;5061930;28;20036;-78
2023/04/11 06:39:33;;;;;;;12.32;4.10;;;8.00;99.90;;;;;;5064746;28;20123;-77
2023/04/11 06:41:58;;;;;;;17.50;5.15;;;8.00;99.90;;;;;;5050172;28;20417;-78
2023/04/11 06:44:24;;;;;;;17.08;5.45;;;8.00;99.90;;;;;;5061708;28;20037;-78
2023/04/11 06:46:50;;;;;;;17.70;5.70;;;8.10;99.90;;;;;;5050386;28;20057;-78
2023/04/11 06:49:17;;;;;;;12.15;4.40;;;8.10;99.90;;;;;;5067052;28;20063;-78
2023/04/11 06:51:46;;;;;;;10.85;4.47;;;8.10;99.90;;;;;;5066971;28;20420;-78
2023/04/11 06:54:11;;;;;;;;;;;8.20;99.90;;;;;;5066495;28;20044;-78
2023/04/11 06:56:37;;;;;;;13.27;4.90;;;8.20;99.90;;;;;;5066973;28;19950;-78
2023/04/11 06:59:03;;;;;;;16.05;5.95;;;8.20;99.90;;;;;;5101036;27;20154;-77
2023/04/11 07:01:36;;;;;;;12.88;5.63;;;8.20;99.90;;;;;;5065913;28;20436;-77
2023/04/11 07:04:03;;;;;;;29.67;6.50;;;8.20;99.90;;;;;;5066423;28;20104;-76
2023/04/11 07:06:30;;;;;;;25.20;6.57;;;8.30;99.90;;;;;;5066176;28;20454;-76
2023/04/11 07:08:56;;;;;;;10.27;5.28;;;8.30;99.90;;;;;;5064684;28;20051;-77
2023/04/11 07:11:22;;;;;;;20.25;5.20;;;8.30;99.90;;;;;;5100023;28;20048;-78
2023/04/11 07:13:49;;;;;;;13.63;4.78;;;8.30;99.90;;;;;;5096969;28;20497;-76
2023/04/11 07:16:14;;;;;;;19.00;5.78;;;8.20;99.90;;;;;;5056721;28;20052;-77
2023/04/11 07:18:41;;;;;;;21.17;5.72;;;8.30;99.90;;;;;;5061238;28;20098;-79
2023/04/11 07:21:12;;;;;;;16.15;5.20;;;8.30;99.90;;;;;;5056975;28;20476;-78
2023/04/11 07:23:38;;;;;;;22.08;5.05;;;8.40;99.90;;;;;;5088275;28;20036;-78
2023/04/11 07:26:04;;;;;;;14.88;4.85;;;8.50;99.90;;;;;;5064749;28;20661;-79
2023/04/11 07:28:32;;;;;;;17.17;5.35;;;8.60;99.90;;;;;;5096652;28;20400;-78
2023/04/11 07:30:58;;;;;;;10.98;3.50;;;8.70;99.90;;;;;;5099322;28;20044;-78
2023/04/11 07:33:24;;;;;;;19.15;4.93;;;8.90;99.90;;;;;;5065630;28;20060;-78
2023/04/11 07:35:49;;;;;;;14.50;4.85;;;9.10;99.90;;;;;;5063116;28;20053;-78
2023/04/11 07:38:25;;;;;;;15.20;5.45;;;9.20;99.90;;;;;;5064963;28;20041;-78
2023/04/11 07:40:52;;;;;;;11.88;3.90;;;9.40;99.90;;;;;;5048605;28;20121;-78
2023/04/11 07:43:17;;;;;;;13.55;3.55;;;9.50;99.90;;;;;;5054612;28;20060;-78
2023/04/11 07:45:43;;;;;;;12.32;3.85;;;9.70;99.90;;;;;;5060905;28;20041;-78
2023/04/11 07:48:10;;;;;;;18.38;5.72;;;9.80;99.90;;;;;;5059769;28;20049;-78
2023/04/11 07:50:36;;;;;;;14.23;4.22;;;9.80;99.90;;;;;;5093150;28;20052;-79
2023/04/11 07:53:02;;;;;;;15.07;4.55;;;9.70;99.90;;;;;;5064848;28;20057;-78
2023/04/11 07:55:27;;;;;;;11.27;4.28;;;9.60;99.90;;;;;;5064701;28;20056;-78
2023/04/11 07:57:53;;;;;;;13.35;4.70;;;9.50;99.90;;;;;;5062737;28;20082;-78
2023/04/11 08:00:22;;;;;;;8.20;3.70;;;9.50;99.90;;;;;;5097983;28;20063;-78
2023/04/11 08:02:48;;;;;;;14.65;4.40;;;9.40;99.90;;;;;;5064775;28;20048;-78
2023/04/11 08:05:14;;;;;;;15.75;5.70;;;9.30;99.90;;;;;;5047849;28;20056;-77
2023/04/11 08:07:40;;;;;;;13.98;3.85;;;9.30;99.90;;;;;;5063455;28;20090;-77
2023/04/11 08:10:07;;;;;;;13.98;4.07;;;9.30;99.90;;;;;;5062388;28;20045;-77
2023/04/11 08:12:32;;;;;;;14.80;4.38;;;9.30;99.90;;;;;;5062622;28;20041;-78
2023/04/11 08:14:59;;;;;;;14.02;4.53;;;9.20;99.90;;;;;;5065366;28;20129;-77
2023/04/11 08:17:27;;;;;;;11.05;3.67;;;9.10;99.90;;;;;;5063980;28;20045;-77
2023/04/11 08:19:56;;;;;;;13.15;3.70;;;8.90;99.90;;;;;;5062767;28;20113;-79
2023/04/11 08:22:22;;;;;;;8.93;3.53;;;8.70;99.90;;;;;;5062542;28;20115;-78
2023/04/11 08:24:48;;;;;;;11.40;4.13;;;8.60;99.90;;;;;;5063404;28;20056;-78
2023/04/11 08:27:14;;;;;;;13.52;4.90;;;8.40;99.90;;;;;;5094688;28;20146;-78
2023/04/11 08:29:41;;;;;;;16.38;4.03;;;8.30;99.90;;;;;;5064780;28;20080;-79
2023/04/11 08:32:07;;;;;;;14.25;4.05;;;8.30;99.90;;;;;;5089790;28;20822;-78
2023/04/11 08:34:33;;;;;;;10.07;3.72;;;8.20;99.90;;;;;;5065007;28;20060;-78
2023/04/11 08:36:58;;;;;;;13.80;3.88;;;8.20;99.90;;;;;;5065202;28;20131;-78
2023/04/11 08:39:25;;;;;;;22.92;5.05;;;8.20;99.90;;;;;;5063353;28;20321;-77
2023/04/11 08:41:51;;;;;;;19.98;4.80;;;8.20;99.90;;;;;;5065289;28;20055;-78
2023/04/11 08:44:18;;;;;;;14.05;4.45;;;8.30;99.90;;;;;;5059850;28;20041;-78
2023/04/11 08:46:43;;;;;;;13.48;4.22;;;8.30;99.90;;;;;;5066185;28;20056;-78
2023/04/11 08:49:09;;;;;;;11.93;3.80;;;8.30;99.90;;;;;;5064435;28;20075;-78
2023/04/11 08:51:37;;;;;;;15.63;5.47;;;8.30;99.90;;;;;;5068154;28;20404;-77
2023/04/11 08:54:07;;;;;;;16.25;5.40;;;8.40;99.90;;;;;;5068566;28;20067;-77
2023/04/11 08:56:34;;;;;;;12.18;4.70;;;8.40;99.90;;;;;;5068706;28;20613;-78
2023/04/11 08:59:00;;;;;;;18.55;5.20;;;8.50;99.90;;;;;;5099557;28;20077;-78
2023/04/11 09:01:30;;;;;;;13.95;5.55;;;8.60;99.90;;;;;;5068370;28;20052;-78
2023/04/11 09:04:01;;;;;;;14.73;6.75;;;8.70;99.90;;;;;;5064657;28;20067;-78
2023/04/11 09:06:32;;;;;;;17.63;5.65;;;8.80;99.90;;;;;;5066692;28;20079;-79
2023/04/11 09:08:59;;;;;;;12.60;4.05;;;8.80;99.90;;;;;;5064775;28;20093;-79
2023/04/11 09:11:25;;;;;;;15.90;5.95;;;8.80;99.90;;;;;;5066648;28;20041;-78
2023/04/11 09:14:08;;;;;;;13.00;3.97;;;8.70;99.90;;;;;;5067821;28;20140;-78
2023/04/11 09:16:34;;;;;;;9.98;3.08;;;8.50;99.90;;;;;;5097752;28;20528;-79
2023/04/11 09:19:00;;;;;;;9.43;3.80;;;8.30;99.90;;;;;;5062961;28;20580;-78
2023/04/11 09:21:30;;;;;;;10.18;3.78;;;8.20;99.90;;;;;;5068284;28;20048;-79
2023/04/11 09:24:14;;;;;;;15.73;4.10;;;8.20;99.90;;;;;;5056604;28;20749;-79
2023/04/11 09:26:40;;;;;;;8.82;3.45;;;8.20;99.90;;;;;;5066630;28;20071;-78
2023/04/11 09:29:06;;;;;;;11.02;3.58;;;8.20;99.90;;;;;;5062873;28;20052;-78
2023/04/11 09:31:43;;;;;;;16.02;3.53;;;8.20;99.90;;;;;;5067864;28;20056;-79
2023/04/11 09:34:11;;;;;;;15.88;3.95;;;8.30;99.90;;;;;;5097162;28;20045;-78
2023/04/11 09:36:38;;;;;;;10.25;3.58;;;8.30;99.90;;;;;;5067882;28;20670;-78
2023/04/11 09:39:17;;;;;;;13.02;4.15;;;8.30;99.90;;;;;;5068364;28;20875;-78
2023/04/11 09:41:43;;;;;;;20.13;4.00;;;8.30;99.90;;;;;;5069199;28;20059;-77
2023/04/11 09:44:08;;;;;;;12.05;4.38;;;8.50;99.90;;;;;;5067852;28;20048;-77
2023/04/11 09:46:36;;;;;;;7.65;3.78;;;8.80;99.90;;;;;;5066494;28;20409;-78
2023/04/11 09:49:02;;;;;;;15.85;3.75;;;8.90;99.90;;;;;;5067152;28;20489;-78
2023/04/11 09:51:28;;;;;;;8.43;3.65;;;9.00;99.90;;;;;;5068111;28;20070;-78
2023/04/11 09:53:57;;;;;;;7.63;2.95;;;9.10;99.90;;;;;;5066633;28;20420;-79
2023/04/11 09:56:25;;;;;;;11.43;3.45;;;8.90;99.90;;;;;;5068547;28;20059;-78
2023/04/11 09:58:53;;;;;;;8.55;3.05;;;8.80;99.90;;;;;;5059609;28;20057;-78
2023/04/11 10:01:19;;;;;;;10.57;3.42;;;8.70;99.90;;;;;;5058588;28;20068;-78
2023/04/11 10:03:49;;;;;;;6.07;3.05;;;8.60;99.90;;;;;;5065691;28;20071;-79
2023/04/11 10:06:30;;;;;;;6.15;3.08;;;8.40;99.90;;;;;;5065979;28;20572;-79
2023/04/11 10:09:17;;;;;;;4.13;2.45;;;8.40;99.90;;;;;;5065626;28;20048;-79
2023/04/11 10:11:43;;;;;;;9.50;2.53;;;8.30;99.90;;;;;;5061693;28;20808;-79
2023/04/11 10:14:35;;;;;;;9.25;3.00;;;8.30;99.90;;;;;;5066474;28;20552;-79
2023/04/11 10:17:18;;;;;;;6.30;2.67;;;8.20;99.90;;;;;;5064549;28;20128;-78
2023/04/11 10:19:45;;;;;;;6.13;2.90;;;8.20;99.90;;;;;;5091400;28;20567;-78
2023/04/11 10:22:39;;;;;;;7.53;3.13;;;8.20;99.90;;;;;;5099196;28;20128;-79
2023/04/11 10:25:16;;;;;;;12.07;3.38;;;8.30;99.90;;;;;;5091319;28;20084;-79
2023/04/11 10:27:52;;;;;;;12.98;3.97;;;8.30;99.90;;;;;;5095899;28;20052;-79
2023/04/11 10:30:18;;;;;;;11.95;4.10;;;8.30;99.90;;;;;;5072186;28;20104;-79
2023/04/11 10:33:19;;;;;;;11.35;4.32;;;8.40;99.90;;;;;;5067037;28;20115;-79
2023/04/11 10:36:04;;;;;;;15.25;4.18;;;8.60;99.90;;;;;;5064686;28;20068;-79
2023/04/11 10:38:47;;;;;;;8.35;3.72;;;8.80;99.90;;;;;;5057764;28;20543;-79
2023/04/11 10:41:25;;;;;;;8.93;3.35;;;9.10;99.90;;;;;;5064720;28;20041;-79
2023/04/11 10:44:10;;;;;;;10.45;4.45;;;9.40;99.90;;;;;;5066155;28;20055;-79
2023/04/11 10:46:47;;;;;;;15.15;3.72;;;9.80;99.90;;;;;;5066981;28;20055;-79
2023/04/11 10:49:33;;;;;;;11.65;4.30;;;10.00;99.90;;;;;;5098380;28;20105;-79
2023/04/11 10:52:21;;;;;;;9.23;2.78;;;10.10;99.90;;;;;;5066211;28;20040;-79
2023/04/11 10:54:52;;;;;;;15.43;3.75;;;10.30;99.90;;;;;;5066460;28;20052;-78
2023/04/11 10:57:18;;;;;;;11.00;3.95;;;10.60;99.90;;;;;;5065475;28;20246;-79
2023/04/11 10:59:51;;;;;;;12.60;3.42;;;11.00;99.90;;;;;;5099806;28;20044;-79
2023/04/11 11:02:18;;;;;;;12.82;3.25;;;11.40;99.90;;;;;;5064572;28;20060;-79
2023/04/11 11:04:45;;;;;;;13.35;4.18;;;11.80;99.90;;;;;;5062287;28;20052;-78
2023/04/11 11:07:15;;;;;;;14.43;3.80;;;12.10;99.90;;;;;;5065515;28;20133;-78
2023/04/11 11:09:47;;;;;;;9.18;3.70;;;12.00;99.90;;;;;;5065598;28;20091;-78
2023/04/11 11:12:14;;;;;;;8.75;3.00;;;11.70;99.90;;;;;;5062475;28;20501;-78
2023/04/11 11:14:45;;;;;;;10.35;3.13;;;11.40;99.90;;;;;;5067173;28;20037;-78
2023/04/11 11:17:13;;;;;;;21.63;4.65;;;11.20;99.90;;;;;;5066309;28;20056;-77
2023/04/11 11:19:47;;;;;;;9.93;3.78;;;11.10;99.90;;;;;;5099426;28;20050;-77
2023/04/11 11:22:27;;;;;;;10.77;3.95;;;11.00;99.90;;;;;;5066597;28;20040;-77
2023/04/11 11:24:53;;;;;;;13.35;2.70;;;10.80;99.90;;;;;;5066030;28;20063;-78
2023/04/11 11:27:23;;;;;;;15.60;3.78;;;10.50;99.90;;;;;;5065615;28;20375;-79
2023/04/11 11:29:49;;;;;;;7.07;2.72;;;10.20;99.90;;;;;;5063839;28;20049;-79
2023/04/11 11:32:28;;;;;;;6.15;2.75;;;10.00;99.90;;;;;;5098705;28;20044;-79
2023/04/11 11:34:56;;;;;;;8.65;3.30;;;9.90;99.90;;;;;;5100693;28;20105;-78
2023/04/11 11:37:22;;;;;;;12.07;5.25;;;9.90;99.90;;;;;;5063482;28;20067;-78
2023/04/11 11:39:49;;;;;;;20.50;4.88;;;9.90;99.90;;;;;;5062630;28;20049;-78
2023/04/11 11:42:15;;;;;;;7.27;2.97;;;9.80;99.90;;;;;;5063221;28;20053;-78
2023/04/11 11:44:42;;;;;;;13.80;3.13;;;9.80;99.90;;;;;;5067823;28;20108;-78
2023/04/11 11:47:15;;;;;;;14.07;4.35;;;9.60;99.90;;;;;;5067006;28;20067;-75
2023/04/11 11:49:52;;;;;;;7.82;2.97;;;9.60;99.90;;;;;;5064323;28;20059;-75
2023/04/11 11:52:39;;;;;;;10.25;3.50;;;9.60;99.90;;;;;;5065924;28;20452;-75
2023/04/11 11:55:08;;;;;;;10.63;3.00;;;9.70;99.90;;;;;;5063428;28;20117;-75
2023/04/11 11:57:36;;;;;;;18.23;3.55;;;10.00;99.90;;;;;;5098863;28;20054;-75
2023/04/11 12:00:08;;;;;;;19.92;4.95;;;10.30;99.90;;;;;;5094378;28;20044;-78
2023/04/11 12:02:35;;;;;;;9.98;3.60;;;10.40;99.90;;;;;;5068542;28;20056;-77
2023/04/11 12:05:04;;;;;;;15.90;3.38;;;10.30;99.90;;;;;;5067204;28;20090;-77
2023/04/11 12:07:33;;;;;;;12.45;3.15;;;10.20;99.90;;;;;;5065612;28;20059;-76
2023/04/11 12:10:01;;;;;;;18.95;3.60;;;10.10;99.90;;;;;;5097686;28;20135;-76
2023/04/11 12:12:40;;;;;;;6.53;2.70;;;10.10;99.90;;;;;;5064740;28;20463;-76
2023/04/11 12:15:24;;;;;;;14.50;2.72;;;10.10;99.90;;;;;;5048017;28;20097;-76
2023/04/11 12:17:51;;;;;;;13.52;3.47;;;10.10;99.90;;;;;;5064022;28;20102;-75
2023/04/11 12:20:25;;;;;;;12.73;3.72;;;10.20;99.90;;;;;;5065392;28;20119;-75
2023/04/11 12:22:51;;;;;;;9.50;4.28;;;10.50;99.90;;;;;;5064163;28;20064;-76
2023/04/11 12:25:17;;;;;;;13.45;3.70;;;10.70;99.90;;;;;;5067527;28;20056;-75
2023/04/11 12:27:44;;;;;;;15.48;3.72;;;11.00;99.90;;;;;;5069638;28;20412;-75
2023/04/11 12:30:13;;;;;;;15.40;4.60;;;11.10;99.90;;;;;;5069458;28;20119;-75
2023/04/11 12:32:40;;;;;;;18.75;6.82;;;11.30;99.90;;;;;;5052262;28;20045;-75
2023/04/11 12:35:06;;;;;;;11.88;3.80;;;11.50;99.90;;;;;;5065969;28;20086;-75
2023/04/11 12:37:33;;;;;;;30.38;7.35;;;11.60;99.90;;;;;;5066709;28;20048;-75
2023/04/11 12:39:59;;;;;;;9.60;3.33;;;11.60;99.90;;;;;;5102246;28;20359;-75
2023/04/11 12:42:25;;;;;;;11.85;4.25;;;11.60;99.90;;;;;;5068748;28;20048;-77
2023/04/11 12:44:51;;;;;;;12.88;2.72;;;11.40;99.90;;;;;;5070069;28;20417;-77
2023/04/11 12:47:17;;;;;;;10.50;3.72;;;11.30;99.90;;;;;;5068995;28;20041;-75
2023/04/11 12:49:43;;;;;;;9.80;4.20;;;11.20;99.90;;;;;;5069065;28;20055;-76
2023/04/11 12:52:09;;;;;;;13.93;3.38;;;11.40;99.90;;;;;;5064204;28;20390;-75
2023/04/11 12:54:35;;;;;;;15.68;4.22;;;11.50;99.90;;;;;;5068952;28;20040;-75